createdAt,value
2023-06-11T00:00:17.952Z,1000.00
2023-06-11T00:01:17.981Z,1000.00
2023-06-11T00:02:18.078Z,1000.00
2023-06-11T00:03:18.123Z,1000.00
2023-06-11T00:04:18.077Z,1000.00
2023-06-11T00:05:18.002Z,1000.00
2023-06-11T00:06:17.990Z,1000.00
2023-06-11T00:07:18.017Z,1000.00
2023-06-11T00:08:17.991Z,1000.00
2023-06-11T00:09:18.032Z,1000.00
2023-06-11T00:10:18.025Z,1000.00
2023-06-11T00:11:18.031Z,1000.00
2023-06-11T00:12:18.041Z,1000.00
2023-06-11T00:13:18.004Z,1000.00
2023-06-11T00:14:18.013Z,1000.00
2023-06-11T00:15:18.039Z,1000.00
2023-06-11T00:16:18.084Z,1000.00
2023-06-11T00:17:18.057Z,1000.00
2023-06-11T00:18:18.108Z,1000.00
2023-06-11T00:19:18.094Z,1000.00
2023-06-11T00:20:18.082Z,1000.00
2023-06-11T00:21:18.114Z,1000.00
2023-06-11T00:22:18.146Z,1000.00
2023-06-11T00:23:18.121Z,1000.00
2023-06-11T00:24:18.427Z,1000.00
2023-06-11T00:25:18.146Z,1000.00
2023-06-11T00:26:18.134Z,1000.00
2023-06-11T00:27:18.130Z,1000.00
2023-06-11T00:28:18.113Z,1000.00
2023-06-11T00:29:18.074Z,1000.00
2023-06-11T00:30:18.060Z,1000.00
2023-06-11T00:31:18.068Z,1000.00
2023-06-11T00:32:18.003Z,1000.00
2023-06-11T00:33:17.992Z,1000.00
2023-06-11T00:34:18.010Z,1000.00
2023-06-11T00:35:18.028Z,1000.00
2023-06-11T00:36:17.972Z,1000.00
2023-06-11T00:37:18.007Z,1000.00
2023-06-11T00:38:20.649Z,1000.00
2023-06-11T00:39:17.999Z,1000.00
2023-06-11T00:40:17.964Z,1000.00
2023-06-11T00:41:17.929Z,1000.00
2023-06-11T00:42:17.877Z,1000.00
2023-06-11T00:43:17.846Z,1000.00
2023-06-11T00:44:17.776Z,1000.00
2023-06-11T00:45:17.749Z,1000.00
2023-06-11T00:46:17.806Z,1000.00
2023-06-11T00:47:17.639Z,1000.00
2023-06-11T00:48:17.602Z,1000.00
2023-06-11T00:49:17.567Z,1000.00
2023-06-11T00:50:17.537Z,1000.00
2023-06-11T00:51:17.448Z,1000.00
2023-06-11T00:52:17.426Z,1000.00
2023-06-11T00:53:17.352Z,1000.00
2023-06-11T00:54:17.336Z,1000.00
2023-06-11T00:55:17.286Z,1000.00
2023-06-11T00:56:17.241Z,1000.00
2023-06-11T00:57:17.187Z,1000.00
2023-06-11T00:58:17.146Z,1000.00
2023-06-11T00:59:17.087Z,1000.00
2023-06-11T01:00:17.037Z,1000.00
2023-06-11T01:01:17.014Z,1000.00
2023-06-11T01:02:16.923Z,1000.00
2023-06-11T01:03:16.864Z,1000.00
2023-06-11T01:04:16.991Z,1000.00
2023-06-11T01:05:16.998Z,1000.00
2023-06-11T01:06:16.731Z,1000.00
2023-06-11T01:07:16.678Z,1000.00
2023-06-11T01:08:16.622Z,1000.00
2023-06-11T01:09:16.555Z,1000.00
2023-06-11T01:10:16.519Z,1000.00
2023-06-11T01:11:16.455Z,1000.00
2023-06-11T01:12:16.409Z,1000.00
2023-06-11T01:13:16.361Z,1000.00
2023-06-11T01:14:16.331Z,1000.00
2023-06-11T01:15:16.264Z,1000.00
2023-06-11T01:16:16.232Z,1000.00
2023-06-11T01:17:17.129Z,1000.00
2023-06-11T01:18:16.167Z,1000.00
2023-06-11T01:19:16.089Z,1000.00
2023-06-11T01:20:16.079Z,1000.00
2023-06-11T01:21:16.007Z,1000.00
2023-06-11T01:22:15.971Z,1000.00
2023-06-11T01:23:15.940Z,1000.00
2023-06-11T01:24:15.956Z,1000.00
2023-06-11T01:25:15.861Z,1000.00
2023-06-11T01:26:15.799Z,1000.00
2023-06-11T01:27:15.761Z,1000.00
2023-06-11T01:28:15.710Z,1000.00
2023-06-11T01:29:15.677Z,1000.00
2023-06-11T01:30:15.667Z,1000.00
2023-06-11T01:31:15.671Z,1000.00
2023-06-11T01:32:15.662Z,1000.00
2023-06-11T01:33:15.613Z,1000.00
2023-06-11T01:34:15.639Z,1000.00
2023-06-11T01:35:15.656Z,1000.00
2023-06-11T01:36:15.683Z,1000.00
2023-06-11T01:37:15.620Z,1000.00
2023-06-11T01:38:15.609Z,1000.00
2023-06-11T01:39:15.625Z,1000.00
2023-06-11T01:40:15.715Z,1000.00
2023-06-11T01:41:15.774Z,1000.00
2023-06-11T01:42:15.614Z,1000.00
2023-06-11T01:43:15.602Z,1000.00
2023-06-11T01:44:15.615Z,1000.00
2023-06-11T01:45:15.636Z,1000.00
2023-06-11T01:46:15.645Z,1000.00
2023-06-11T01:47:15.581Z,1000.00
2023-06-11T01:48:15.577Z,1000.00
2023-06-11T01:49:15.535Z,1000.00
2023-06-11T01:50:15.502Z,1000.00
2023-06-11T01:51:15.494Z,1000.00
2023-06-11T01:52:15.499Z,1000.00
2023-06-11T01:53:15.478Z,1000.00
2023-06-11T01:54:15.496Z,1000.00
2023-06-11T01:55:15.449Z,1000.00
2023-06-11T01:56:15.418Z,1000.00
2023-06-11T01:57:15.381Z,1000.00
2023-06-11T01:58:15.363Z,1000.00
2023-06-11T01:59:15.381Z,1000.00
2023-06-11T02:00:15.402Z,1000.00
2023-06-11T02:01:15.394Z,1000.00
2023-06-11T02:02:15.414Z,1000.00
2023-06-11T02:03:15.424Z,1000.00
2023-06-11T02:04:15.369Z,1000.00
2023-06-11T02:05:15.333Z,1000.00
2023-06-11T02:06:15.356Z,1000.00
2023-06-11T02:07:15.327Z,1000.00
2023-06-11T02:08:15.301Z,1000.00
2023-06-11T02:09:15.302Z,1000.00
2023-06-11T02:10:15.265Z,1000.00
2023-06-11T02:11:15.242Z,1000.00
2023-06-11T02:12:15.212Z,1000.00
2023-06-11T02:13:15.179Z,1000.00
2023-06-11T02:14:15.136Z,1000.00
2023-06-11T02:15:15.223Z,1000.00
2023-06-11T02:16:15.178Z,1000.00
2023-06-11T02:17:15.105Z,1000.00
2023-06-11T02:18:15.136Z,1000.00
2023-06-11T02:19:15.144Z,1000.00
2023-06-11T02:20:15.177Z,1000.00
2023-06-11T02:21:15.175Z,1000.00
2023-06-11T02:22:15.151Z,1000.00
2023-06-11T02:23:15.184Z,1000.00
2023-06-11T02:24:15.282Z,1000.00
2023-06-11T02:25:15.169Z,1000.00
2023-06-11T02:26:15.098Z,1000.00
2023-06-11T02:27:15.050Z,1000.00
2023-06-11T02:28:15.051Z,1000.00
2023-06-11T02:29:15.082Z,1000.00
2023-06-11T02:30:15.040Z,1000.00
2023-06-11T02:31:15.025Z,1000.00
2023-06-11T02:32:15.069Z,1000.00
2023-06-11T02:33:14.998Z,1000.00
2023-06-11T02:34:14.967Z,1000.00
2023-06-11T02:35:14.931Z,1000.00
2023-06-11T02:36:14.899Z,1000.00
2023-06-11T02:37:14.862Z,1000.00
2023-06-11T02:38:14.936Z,1000.00
2023-06-11T02:39:14.897Z,1000.00
2023-06-11T02:40:14.913Z,1000.00
2023-06-11T02:41:14.891Z,1000.00
2023-06-11T02:42:14.878Z,1000.00
2023-06-11T02:43:14.873Z,1000.00
2023-06-11T02:44:14.891Z,1000.00
2023-06-11T02:45:14.906Z,1000.00
2023-06-11T02:46:14.936Z,1000.00
2023-06-11T02:47:14.866Z,1000.00
2023-06-11T02:48:14.871Z,1000.00
2023-06-11T02:49:14.880Z,1000.00
2023-06-11T02:50:14.908Z,1000.00
2023-06-11T02:51:14.877Z,1000.00
2023-06-11T02:52:14.908Z,1000.00
2023-06-11T02:53:14.903Z,1000.00
2023-06-11T02:54:14.877Z,1000.00
2023-06-11T02:55:14.963Z,1000.00
2023-06-11T02:56:14.843Z,1000.00
2023-06-11T02:57:14.827Z,1000.00
2023-06-11T02:58:14.805Z,1000.00
2023-06-11T02:59:14.761Z,1000.00
2023-06-11T03:00:14.724Z,1000.00
2023-06-11T03:01:14.734Z,1000.00
2023-06-11T03:02:14.667Z,1000.00
2023-06-11T03:03:14.650Z,1000.00
2023-06-11T03:04:14.686Z,1000.00
2023-06-11T03:05:14.943Z,1000.00
2023-06-11T03:06:14.613Z,1000.00
2023-06-11T03:07:14.610Z,1000.00
2023-06-11T03:08:14.678Z,1000.00
2023-06-11T03:09:14.649Z,1000.00
2023-06-11T03:10:14.611Z,1000.00
2023-06-11T03:11:14.591Z,1000.00
2023-06-11T03:12:14.573Z,1000.00
2023-06-11T03:13:14.530Z,1000.00
2023-06-11T03:14:14.578Z,1000.00
2023-06-11T03:15:14.743Z,1000.00
2023-06-11T03:16:14.644Z,1000.00
2023-06-11T03:17:14.542Z,1000.00
2023-06-11T03:18:14.505Z,1000.00
2023-06-11T03:19:14.434Z,1000.00
2023-06-11T03:20:14.424Z,1000.00
2023-06-11T03:21:14.363Z,1000.00
2023-06-11T03:22:14.372Z,1000.00
2023-06-11T03:23:14.380Z,1000.00
2023-06-11T03:24:14.455Z,1000.00
2023-06-11T03:25:14.459Z,1000.00
2023-06-11T03:26:14.389Z,1000.00
2023-06-11T03:27:14.354Z,1000.00
2023-06-11T03:28:14.348Z,1000.00
2023-06-11T03:29:14.347Z,1000.00
2023-06-11T03:30:14.337Z,1000.00
2023-06-11T03:31:14.317Z,1000.00
2023-06-11T03:32:14.245Z,1000.00
2023-06-11T03:33:14.226Z,1000.00
2023-06-11T03:34:14.176Z,1000.00
2023-06-11T03:35:14.153Z,1000.00
2023-06-11T03:36:14.156Z,1000.00
2023-06-11T03:37:14.216Z,1000.00
2023-06-11T03:38:14.170Z,1000.00
2023-06-11T03:39:14.188Z,1000.00
2023-06-11T03:40:14.197Z,1000.00
2023-06-11T03:41:14.194Z,1000.00
2023-06-11T03:42:14.236Z,1000.00
2023-06-11T03:43:14.173Z,1000.00
2023-06-11T03:44:14.169Z,1000.00
2023-06-11T03:45:14.200Z,1000.00
2023-06-11T03:46:14.155Z,1000.00
2023-06-11T03:47:14.234Z,1000.00
2023-06-11T03:48:14.198Z,1000.00
2023-06-11T03:49:14.171Z,1000.00
2023-06-11T03:50:14.190Z,1000.00
2023-06-11T03:51:14.209Z,1000.00
2023-06-11T03:52:14.183Z,1000.00
2023-06-11T03:53:14.857Z,1000.00
2023-06-11T03:54:14.881Z,1000.00
2023-06-11T03:55:14.120Z,1000.00
2023-06-11T03:56:14.140Z,1000.00
2023-06-11T03:57:14.109Z,1000.00
2023-06-11T03:58:14.085Z,1000.00
2023-06-11T03:59:14.103Z,1000.00
2023-06-11T04:00:14.094Z,1000.00
2023-06-11T04:01:14.090Z,1000.00
2023-06-11T04:02:14.137Z,1000.00
2023-06-11T04:03:14.180Z,1000.00
2023-06-11T04:04:14.221Z,1000.00
2023-06-11T04:05:14.208Z,1000.00
2023-06-11T04:06:14.191Z,1000.00
2023-06-11T04:07:14.156Z,1000.00
2023-06-11T04:08:14.158Z,1000.00
2023-06-11T04:09:14.076Z,1000.00
2023-06-11T04:10:14.076Z,1000.00
2023-06-11T04:11:14.004Z,1000.00
2023-06-11T04:12:13.969Z,1000.00
2023-06-11T04:13:13.971Z,1000.00
2023-06-11T04:14:13.916Z,1000.00
2023-06-11T04:15:13.885Z,1000.00
2023-06-11T04:16:13.868Z,1000.00
2023-06-11T04:17:13.902Z,1000.00
2023-06-11T04:18:13.916Z,1000.00
2023-06-11T04:19:13.806Z,1000.00
2023-06-11T04:20:13.767Z,1000.00
2023-06-11T04:21:13.716Z,1000.00
2023-06-11T04:22:13.710Z,1000.00
2023-06-11T04:23:13.718Z,1000.00
2023-06-11T04:24:13.665Z,1000.00
2023-06-11T04:25:13.805Z,1000.00
2023-06-11T04:26:13.594Z,1000.00
2023-06-11T04:27:13.605Z,1000.00
2023-06-11T04:28:13.617Z,1000.00
2023-06-11T04:29:13.593Z,1000.00
2023-06-11T04:30:13.611Z,1000.00
2023-06-11T04:31:13.615Z,1000.00
2023-06-11T04:32:13.548Z,1000.00
2023-06-11T04:33:13.573Z,1000.00
2023-06-11T04:34:13.471Z,1000.00
2023-06-11T04:35:15.820Z,1000.00
2023-06-11T04:36:13.357Z,1000.00
2023-06-11T04:37:13.337Z,1000.00
2023-06-11T04:38:13.230Z,1000.00
2023-06-11T04:39:13.162Z,1000.00
2023-06-11T04:40:13.128Z,1000.00
2023-06-11T04:41:13.061Z,1000.00
2023-06-11T04:42:13.042Z,1000.00
2023-06-11T04:43:12.943Z,1000.00
2023-06-11T04:44:12.896Z,1000.00
2023-06-11T04:45:13.075Z,1000.00
2023-06-11T04:46:12.778Z,1000.00
2023-06-11T04:47:12.692Z,1000.00
2023-06-11T04:48:12.640Z,1000.00
2023-06-11T04:49:12.566Z,1000.00
2023-06-11T04:50:12.516Z,1000.00
2023-06-11T04:51:12.460Z,1000.00
2023-06-11T04:52:12.427Z,1000.00
2023-06-11T04:53:12.335Z,1000.00
2023-06-11T04:54:12.258Z,1000.00
2023-06-11T04:55:12.481Z,1000.00
2023-06-11T04:56:12.152Z,1000.00
2023-06-11T04:57:12.108Z,1000.00
2023-06-11T04:58:12.098Z,1000.00
2023-06-11T04:59:11.990Z,1000.00
2023-06-11T05:00:12.392Z,1000.00
2023-06-11T05:01:11.872Z,1000.00
2023-06-11T05:02:11.913Z,1000.00
2023-06-11T05:03:11.847Z,1000.00
2023-06-11T05:04:11.699Z,1000.00
2023-06-11T05:05:11.843Z,1000.00
2023-06-11T05:06:11.604Z,1000.00
2023-06-11T05:07:11.552Z,1000.00
2023-06-11T05:08:11.457Z,1000.00
2023-06-11T05:09:11.425Z,1000.00
2023-06-11T05:10:11.432Z,1000.00
2023-06-11T05:11:11.385Z,1000.00
2023-06-11T05:12:11.298Z,1000.00
2023-06-11T05:13:11.310Z,1000.00
2023-06-11T05:14:11.167Z,1000.00
2023-06-11T05:15:11.472Z,1000.00
2023-06-11T05:16:11.075Z,1000.00
2023-06-11T05:17:11.014Z,1000.00
2023-06-11T05:18:11.007Z,1000.00
2023-06-11T05:19:10.906Z,1000.00
2023-06-11T05:20:10.880Z,1000.00
2023-06-11T05:21:10.844Z,1000.00
2023-06-11T05:22:10.794Z,1000.00
2023-06-11T05:23:10.764Z,1000.00
2023-06-11T05:24:10.754Z,1000.00
2023-06-11T05:25:11.053Z,1000.00
2023-06-11T05:26:10.612Z,1000.00
2023-06-11T05:27:10.576Z,1000.00
2023-06-11T05:28:10.543Z,1000.00
2023-06-11T05:29:10.515Z,1000.00
2023-06-11T05:30:10.907Z,1000.00
2023-06-11T05:31:10.524Z,1000.00
2023-06-11T05:32:10.626Z,1000.00
2023-06-11T05:33:10.600Z,1000.00
2023-06-11T05:34:10.506Z,1000.00
2023-06-11T05:35:10.731Z,1000.00
2023-06-11T05:36:10.446Z,1000.00
2023-06-11T05:37:10.454Z,1000.00
2023-06-11T05:38:10.433Z,1000.00
2023-06-11T05:39:10.414Z,1000.00
2023-06-11T05:40:10.374Z,1000.00
2023-06-11T05:41:10.348Z,1000.00
2023-06-11T05:42:10.259Z,1000.00
2023-06-11T05:43:10.177Z,1000.00
2023-06-11T05:44:10.112Z,1000.00
2023-06-11T05:45:10.524Z,1000.00
2023-06-11T05:46:10.052Z,1000.00
2023-06-11T05:47:10.027Z,1000.00
2023-06-11T05:48:09.964Z,1000.00
2023-06-11T05:49:09.859Z,1000.00
2023-06-11T05:50:09.834Z,1000.00
2023-06-11T05:51:09.756Z,1000.00
2023-06-11T05:52:09.711Z,1000.00
2023-06-11T05:53:09.645Z,1000.00
2023-06-11T05:54:09.624Z,1000.00
2023-06-11T05:55:09.853Z,1000.00
2023-06-11T05:56:09.558Z,1000.00
2023-06-11T05:57:09.569Z,1000.00
2023-06-11T05:58:09.528Z,1000.00
2023-06-11T05:59:09.482Z,1000.00
2023-06-11T06:00:09.463Z,1000.00
2023-06-11T06:01:09.458Z,1000.00
2023-06-11T06:02:09.437Z,1000.00
2023-06-11T06:03:09.528Z,1000.00
2023-06-11T06:04:09.522Z,1000.00
2023-06-11T06:05:09.624Z,1000.00
2023-06-11T06:06:09.431Z,1000.00
2023-06-11T06:07:09.424Z,1000.00
2023-06-11T06:08:09.403Z,1000.00
2023-06-11T06:09:09.400Z,1000.00
2023-06-11T06:10:09.451Z,1000.00
2023-06-11T06:11:09.371Z,692.82
2023-06-11T06:12:09.320Z,160.84
2023-06-11T06:13:09.350Z,85.94
2023-06-11T06:14:09.306Z,74.27
2023-06-11T06:15:09.538Z,60.78
2023-06-11T06:16:09.257Z,57.18
2023-06-11T06:17:09.218Z,50.79
2023-06-11T06:18:09.254Z,32.01
2023-06-11T06:19:09.149Z,32.23
2023-06-11T06:20:09.159Z,30.68
2023-06-11T06:21:09.109Z,21.10
2023-06-11T06:22:09.059Z,15.44
2023-06-11T06:23:09.046Z,12.76
2023-06-11T06:24:08.999Z,13.39
2023-06-11T06:25:09.177Z,17.59
2023-06-11T06:26:08.907Z,21.99
2023-06-11T06:27:08.875Z,23.58
2023-06-11T06:28:08.867Z,24.35
2023-06-11T06:29:08.825Z,36.20
2023-06-11T06:30:08.796Z,35.02
2023-06-11T06:31:08.890Z,42.62
2023-06-11T06:32:08.749Z,29.89
2023-06-11T06:33:08.845Z,17.30
2023-06-11T06:34:08.703Z,14.09
2023-06-11T06:35:09.014Z,11.44
2023-06-11T06:36:08.658Z,10.35
2023-06-11T06:37:08.628Z,7.87
2023-06-11T06:38:08.643Z,7.17
2023-06-11T06:39:08.563Z,7.97
2023-06-11T06:40:08.779Z,7.20
2023-06-11T06:41:08.554Z,7.56
2023-06-11T06:42:09.420Z,6.78
2023-06-11T06:43:08.439Z,6.66
2023-06-11T06:44:08.451Z,6.46
2023-06-11T06:45:08.540Z,4.52
2023-06-11T06:46:08.362Z,4.22
2023-06-11T06:47:08.328Z,4.82
2023-06-11T06:48:08.388Z,4.35
2023-06-11T06:49:08.258Z,3.24
2023-06-11T06:50:08.381Z,1.95
2023-06-11T06:51:08.138Z,1.38
2023-06-11T06:52:08.084Z,1.48
2023-06-11T06:53:08.036Z,1.49
2023-06-11T06:54:07.952Z,1.22
2023-06-11T06:55:07.880Z,1.19
2023-06-11T06:56:07.836Z,2.43
2023-06-11T06:57:07.816Z,2.79
2023-06-11T06:58:07.805Z,2.91
2023-06-11T06:59:07.632Z,2.17
2023-06-11T07:00:07.570Z,1.93
2023-06-11T07:01:07.564Z,2.03
2023-06-11T07:02:09.735Z,2.47
2023-06-11T07:03:07.457Z,2.88
2023-06-11T07:04:07.291Z,1.96
2023-06-11T07:05:07.186Z,1.06
2023-06-11T07:06:07.210Z,0.98
2023-06-11T07:07:07.008Z,1.41
2023-06-11T07:08:06.933Z,1.46
2023-06-11T07:09:06.840Z,1.46
2023-06-11T07:10:06.770Z,1.37
2023-06-11T07:11:06.682Z,1.74
2023-06-11T07:12:06.602Z,1.98
2023-06-11T07:13:06.530Z,2.13
2023-06-11T07:14:06.440Z,2.42
2023-06-11T07:15:06.371Z,2.07
2023-06-11T07:16:06.382Z,1.87
2023-06-11T07:17:06.162Z,1.61
2023-06-11T07:18:06.146Z,2.16
2023-06-11T07:19:05.959Z,3.81
2023-06-11T07:20:05.947Z,2.87
2023-06-11T07:21:05.768Z,3.28
2023-06-11T07:22:05.694Z,2.41
2023-06-11T07:23:05.599Z,2.16
2023-06-11T07:24:05.550Z,1.54
2023-06-11T07:25:05.423Z,1.15
2023-06-11T07:26:05.299Z,1.75
2023-06-11T07:27:05.194Z,2.26
2023-06-11T07:28:05.129Z,1.61
2023-06-11T07:29:05.003Z,2.03
2023-06-11T07:30:04.888Z,2.10
2023-06-11T07:31:04.832Z,1.79
2023-06-11T07:32:04.684Z,1.64
2023-06-11T07:33:04.663Z,2.40
2023-06-11T07:34:04.489Z,1.89
2023-06-11T07:35:04.390Z,1.63
2023-06-11T07:36:04.291Z,1.80
2023-06-11T07:37:04.170Z,3.57
2023-06-11T07:38:04.080Z,4.09
2023-06-11T07:39:03.940Z,3.37
2023-06-11T07:40:03.925Z,5.48
2023-06-11T07:41:03.756Z,4.47
2023-06-11T07:42:03.620Z,2.63
2023-06-11T07:43:03.550Z,2.17
2023-06-11T07:44:03.381Z,2.14
2023-06-11T07:45:03.268Z,2.72
2023-06-11T07:46:03.169Z,2.52
2023-06-11T07:47:03.114Z,3.03
2023-06-11T07:48:02.946Z,3.80
2023-06-11T07:49:02.766Z,3.64
2023-06-11T07:50:02.631Z,3.35
2023-06-11T07:51:02.530Z,4.10
2023-06-11T07:52:02.405Z,2.62
2023-06-11T07:53:02.329Z,2.50
2023-06-11T07:54:02.210Z,2.71
2023-06-11T07:55:02.107Z,2.95
2023-06-11T07:56:01.968Z,5.87
2023-06-11T07:57:01.840Z,3.72
2023-06-11T07:58:01.795Z,3.90
2023-06-11T07:59:01.624Z,5.70
2023-06-11T08:00:01.513Z,3.77
2023-06-11T08:01:01.460Z,3.11
2023-06-11T08:02:01.412Z,3.05
2023-06-11T08:03:01.281Z,3.26
2023-06-11T08:04:01.083Z,3.27
2023-06-11T08:05:00.980Z,3.15
2023-06-11T08:06:00.995Z,2.91
2023-06-11T08:07:00.775Z,2.97
2023-06-11T08:08:00.701Z,3.78
2023-06-11T08:09:00.582Z,4.66
2023-06-11T08:10:00.492Z,5.63
2023-06-11T08:11:00.420Z,5.75
2023-06-11T08:12:00.347Z,7.89
2023-06-11T08:13:00.302Z,5.74
2023-06-11T08:14:00.291Z,4.66
2023-06-11T08:15:00.228Z,3.66
2023-06-11T08:16:00.189Z,3.06
2023-06-11T08:17:00.233Z,4.58
2023-06-11T08:18:00.193Z,5.99
2023-06-11T08:19:00.079Z,5.48
2023-06-11T08:19:59.992Z,4.60
2023-06-11T08:20:59.975Z,4.35
2023-06-11T08:21:59.922Z,5.29
2023-06-11T08:22:59.863Z,5.48
2023-06-11T08:23:59.883Z,5.49
2023-06-11T08:24:59.807Z,4.14
2023-06-11T08:25:59.955Z,3.55
2023-06-11T08:26:59.762Z,4.38
2023-06-11T08:28:00.458Z,3.57
2023-06-11T08:28:59.639Z,3.77
2023-06-11T08:29:59.592Z,2.58
2023-06-11T08:30:59.567Z,1.83
2023-06-11T08:31:59.504Z,1.55
2023-06-11T08:32:59.459Z,1.80
2023-06-11T08:33:59.388Z,1.96
2023-06-11T08:34:59.301Z,1.92
2023-06-11T08:35:59.260Z,2.13
2023-06-11T08:36:59.177Z,2.42
2023-06-11T08:37:59.098Z,2.71
2023-06-11T08:38:59.033Z,1.86
2023-06-11T08:39:59.037Z,1.84
2023-06-11T08:40:59.009Z,2.24
2023-06-11T08:41:58.937Z,4.31
2023-06-11T08:42:58.868Z,3.02
2023-06-11T08:43:58.789Z,1.88
2023-06-11T08:44:58.699Z,1.74
2023-06-11T08:45:58.694Z,1.44
2023-06-11T08:46:58.592Z,1.16
2023-06-11T08:47:58.545Z,1.19
2023-06-11T08:48:58.465Z,2.00
2023-06-11T08:49:58.371Z,1.36
2023-06-11T08:50:58.295Z,1.56
2023-06-11T08:51:58.201Z,1.09
2023-06-11T08:52:58.097Z,0.96
2023-06-11T08:53:58.061Z,0.88
2023-06-11T08:54:58.001Z,1.06
2023-06-11T08:55:58.440Z,0.94
2023-06-11T08:56:57.963Z,0.77
2023-06-11T08:57:57.794Z,0.88
2023-06-11T08:58:57.697Z,0.63
2023-06-11T08:59:57.625Z,0.82
2023-06-11T09:00:57.560Z,1.04
2023-06-11T09:01:57.533Z,1.39
2023-06-11T09:02:57.493Z,1.12
2023-06-11T09:03:57.386Z,1.54
2023-06-11T09:04:57.333Z,2.45
2023-06-11T09:05:57.293Z,2.82
2023-06-11T09:06:57.261Z,2.14
2023-06-11T09:07:57.232Z,3.52
2023-06-11T09:08:57.131Z,3.75
2023-06-11T09:09:57.073Z,3.26
2023-06-11T09:10:57.093Z,3.44
2023-06-11T09:11:56.965Z,5.28
2023-06-11T09:12:58.029Z,6.44
2023-06-11T09:13:56.870Z,5.79
2023-06-11T09:14:56.807Z,7.06
2023-06-11T09:15:56.863Z,8.38
2023-06-11T09:16:56.667Z,8.70
2023-06-11T09:17:56.654Z,8.18
2023-06-11T09:18:56.571Z,5.48
2023-06-11T09:19:56.544Z,7.88
2023-06-11T09:20:56.503Z,9.66
2023-06-11T09:21:56.498Z,13.34
2023-06-11T09:22:56.306Z,13.44
2023-06-11T09:23:56.248Z,14.42
2023-06-11T09:24:56.111Z,17.91
2023-06-11T09:25:56.033Z,13.64
2023-06-11T09:26:55.953Z,14.20
2023-06-11T09:27:55.851Z,17.03
2023-06-11T09:28:55.732Z,15.76
2023-06-11T09:29:55.636Z,20.01
2023-06-11T09:30:55.540Z,18.64
2023-06-11T09:31:55.465Z,31.63
2023-06-11T09:32:55.427Z,19.74
2023-06-11T09:33:55.209Z,19.11
2023-06-11T09:34:55.134Z,17.39
2023-06-11T09:35:55.023Z,16.40
2023-06-11T09:36:54.894Z,21.94
2023-06-11T09:37:54.822Z,22.36
2023-06-11T09:38:54.722Z,13.66
2023-06-11T09:39:54.632Z,12.76
2023-06-11T09:40:54.591Z,9.72
2023-06-11T09:41:54.492Z,8.53
2023-06-11T09:42:54.424Z,6.06
2023-06-11T09:43:54.372Z,3.43
2023-06-11T09:44:54.354Z,3.79
2023-06-11T09:45:54.226Z,1.94
2023-06-11T09:46:54.121Z,1.49
2023-06-11T09:47:54.114Z,0.98
2023-06-11T09:48:53.922Z,0.77
2023-06-11T09:49:53.859Z,0.83
2023-06-11T09:50:53.768Z,0.76
2023-06-11T09:51:53.656Z,0.37
2023-06-11T09:52:53.637Z,0.34
2023-06-11T09:53:53.596Z,0.35
2023-06-11T09:54:53.494Z,0.40
2023-06-11T09:56:09.573Z,0.42
2023-06-11T09:56:54.319Z,0.42
2023-06-11T09:57:53.209Z,0.45
2023-06-11T09:58:53.093Z,0.55
2023-06-11T09:59:52.980Z,0.59
2023-06-11T10:00:52.911Z,0.87
2023-06-11T10:01:52.841Z,1.15
2023-06-11T10:02:52.702Z,0.93
2023-06-11T10:03:52.576Z,1.23
2023-06-11T10:04:52.478Z,1.19
2023-06-11T10:05:52.369Z,1.29
2023-06-11T10:06:52.241Z,1.81
2023-06-11T10:07:52.161Z,2.26
2023-06-11T10:08:52.039Z,3.86
2023-06-11T10:09:51.944Z,5.29
2023-06-11T10:10:51.876Z,6.97
2023-06-11T10:11:51.808Z,11.06
2023-06-11T10:12:51.805Z,10.95
2023-06-11T10:13:51.637Z,9.20
2023-06-11T10:14:51.601Z,6.78
2023-06-11T10:15:51.529Z,8.43
2023-06-11T10:16:51.476Z,8.82
2023-06-11T10:17:51.365Z,13.17
2023-06-11T10:18:51.241Z,11.22
2023-06-11T10:19:51.164Z,12.67
2023-06-11T10:20:51.183Z,13.24
2023-06-11T10:21:51.074Z,9.38
2023-06-11T10:22:51.006Z,6.43
2023-06-11T10:23:51.002Z,7.91
2023-06-11T10:24:50.848Z,8.45
2023-06-11T10:25:50.742Z,6.74
2023-06-11T10:26:50.680Z,6.47
2023-06-11T10:27:50.508Z,4.78
2023-06-11T10:28:50.432Z,3.74
2023-06-11T10:29:50.375Z,4.28
2023-06-11T10:30:50.319Z,3.21
2023-06-11T10:31:50.248Z,3.32
2023-06-11T10:32:50.363Z,5.91
2023-06-11T10:33:50.075Z,3.56
2023-06-11T10:34:50.100Z,3.58
2023-06-11T10:35:49.890Z,3.60
2023-06-11T10:36:49.757Z,2.84
2023-06-11T10:37:49.659Z,2.79
2023-06-11T10:38:49.613Z,1.97
2023-06-11T10:39:49.493Z,3.77
2023-06-11T10:40:49.416Z,3.32
2023-06-11T10:41:49.318Z,3.12
2023-06-11T10:42:49.258Z,2.53
2023-06-11T10:43:49.226Z,1.82
2023-06-11T10:44:49.085Z,2.21
2023-06-11T10:45:50.143Z,3.46
2023-06-11T10:46:48.871Z,3.19
2023-06-11T10:47:48.775Z,3.21
2023-06-11T10:48:48.628Z,3.64
2023-06-11T10:49:48.541Z,2.09
2023-06-11T10:50:48.451Z,3.41
2023-06-11T10:51:48.329Z,2.95
2023-06-11T10:52:48.223Z,2.60
2023-06-11T10:53:48.163Z,3.74
2023-06-11T10:54:48.050Z,3.18
2023-06-11T10:55:47.954Z,4.96
2023-06-11T10:56:47.880Z,6.22
2023-06-11T10:57:47.777Z,5.19
2023-06-11T10:58:47.657Z,3.16
2023-06-11T10:59:47.564Z,2.19
2023-06-11T11:00:47.496Z,2.74
2023-06-11T11:01:47.388Z,4.95
2023-06-11T11:02:47.370Z,5.94
2023-06-11T11:03:47.301Z,4.43
2023-06-11T11:04:47.103Z,2.69
2023-06-11T11:05:47.057Z,3.09
2023-06-11T11:06:46.957Z,4.25
2023-06-11T11:07:46.875Z,2.70
2023-06-11T11:08:46.779Z,2.09
2023-06-11T11:09:46.711Z,2.27
2023-06-11T11:10:46.686Z,2.11
2023-06-11T11:11:46.734Z,2.42
2023-06-11T11:12:46.539Z,1.89
2023-06-11T11:13:46.429Z,2.01
2023-06-11T11:14:46.346Z,1.21
2023-06-11T11:15:46.270Z,1.73
2023-06-11T11:16:46.248Z,2.62
2023-06-11T11:17:46.147Z,3.76
2023-06-11T11:18:46.016Z,2.72
2023-06-11T11:19:45.942Z,3.49
2023-06-11T11:20:45.904Z,4.96
2023-06-11T11:21:45.804Z,5.53
2023-06-11T11:22:45.692Z,7.77
2023-06-11T11:23:45.696Z,7.32
2023-06-11T11:24:45.509Z,9.75
2023-06-11T11:25:45.424Z,13.91
2023-06-11T11:26:45.350Z,9.70
2023-06-11T11:27:45.279Z,7.84
2023-06-11T11:28:45.196Z,13.48
2023-06-11T11:29:45.071Z,12.61
2023-06-11T11:30:45.009Z,19.13
2023-06-11T11:31:44.995Z,22.89
2023-06-11T11:32:44.853Z,14.57
2023-06-11T11:33:44.753Z,20.26
2023-06-11T11:34:44.623Z,25.48
2023-06-11T11:35:44.542Z,50.12
2023-06-11T11:36:44.427Z,54.50
2023-06-11T11:37:44.330Z,30.23
2023-06-11T11:38:44.301Z,24.93
2023-06-11T11:39:44.200Z,12.90
2023-06-11T11:40:44.095Z,15.15
2023-06-11T11:41:43.984Z,3.36
2023-06-11T11:42:43.870Z,2.30
2023-06-11T11:43:43.827Z,2.51
2023-06-11T11:44:43.710Z,3.01
2023-06-11T11:45:43.604Z,2.57
2023-06-11T11:46:43.572Z,2.86
2023-06-11T11:47:43.401Z,3.88
2023-06-11T11:48:43.252Z,1.80
2023-06-11T11:49:43.081Z,5.20
2023-06-11T11:50:42.988Z,4.75
2023-06-11T11:51:42.842Z,2.39
2023-06-11T11:52:42.680Z,1.63
2023-06-11T11:53:42.596Z,1.34
2023-06-11T11:54:42.358Z,1.05
2023-06-11T11:55:56.007Z,1.54
2023-06-11T11:56:43.080Z,1.54
2023-06-11T11:57:41.927Z,1.57
2023-06-11T11:58:41.788Z,1.41
2023-06-11T11:59:41.615Z,0.55
2023-06-11T12:00:41.467Z,0.43
2023-06-11T12:01:41.319Z,0.34
2023-06-11T12:02:41.355Z,0.37
2023-06-11T12:03:41.147Z,0.49
2023-06-11T12:04:40.953Z,0.70
2023-06-11T12:05:40.878Z,0.51
2023-06-11T12:06:40.679Z,0.41
2023-06-11T12:07:40.567Z,0.55
2023-06-11T12:08:40.442Z,0.58
2023-06-11T12:09:40.363Z,0.45
2023-06-11T12:10:40.225Z,0.34
2023-06-11T12:11:48.714Z,0.34
2023-06-11T12:12:40.990Z,0.34
2023-06-11T12:13:39.859Z,0.34
2023-06-11T12:14:39.727Z,0.34
2023-06-11T12:15:39.603Z,0.34
2023-06-11T12:16:39.494Z,0.53
2023-06-11T12:17:39.378Z,0.79
2023-06-11T12:18:39.168Z,0.34
2023-06-11T12:19:39.022Z,0.37
2023-06-11T12:20:38.881Z,0.43
2023-06-11T12:21:38.747Z,0.34
2023-06-11T12:22:38.595Z,0.34
2023-06-11T12:23:38.481Z,0.34
2023-06-11T12:24:38.472Z,0.34
2023-06-11T12:25:38.202Z,0.45
2023-06-11T12:26:38.114Z,0.76
2023-06-11T12:27:37.973Z,1.81
2023-06-11T12:28:37.854Z,1.87
2023-06-11T12:29:37.756Z,2.64
2023-06-11T12:30:37.688Z,1.78
2023-06-11T12:31:37.575Z,3.98
2023-06-11T12:32:37.597Z,2.17
2023-06-11T12:33:37.282Z,2.62
2023-06-11T12:34:37.234Z,4.57
2023-06-11T12:35:37.055Z,2.95
2023-06-11T12:36:36.946Z,2.20
2023-06-11T12:37:36.824Z,2.36
2023-06-11T12:38:39.490Z,2.13